Time;durP1;ratioP1;P1;durP2;ratioP2;P2;SDS_P1;SDS_P2;PMS_P1;PMS_P2;Temp;Humidity;BMP_temperature;BMP_pressure;BME280_temperature;BME280_humidity;BME280_pressure;Samples;Min_cycle;Max_cycle;Signal;HPM_P1;HPM_P2
2021/07/07 00:00:15;;;;;;;3.08;0.80;;;;;;;;;;5094383;28;20193;-83
2021/07/07 00:02:43;;;;;;;0.80;0.80;;;;;;;;;;5093959;28;20231;-84
2021/07/07 00:05:14;;;;;;;1.05;0.73;;;;;;;;;;5094251;28;20187;-85
2021/07/07 00:07:43;;;;;;;0.75;0.75;;;;;;;;;;5094381;28;20199;-84
2021/07/07 00:10:14;;;;;;;1.27;0.80;;;;;;;;;;5095465;28;20180;-84
2021/07/07 00:12:42;;;;;;;0.50;0.50;;;;;;;;;;5094969;28;20698;-84
2021/07/07 00:15:19;;;;;;;0.65;0.60;;;;;;;;;;5095607;28;20181;-84
2021/07/07 00:17:49;;;;;;;0.50;0.50;;;;;;;;;;5112155;28;21814;-84
2021/07/07 00:20:18;;;;;;;0.50;0.50;;;;;;;;;;5095195;28;20583;-84
2021/07/07 00:22:46;;;;;;;0.63;0.63;;;;;;;;;;5053353;28;20240;-84
2021/07/07 00:25:14;;;;;;;0.70;0.70;;;;;;;;;;4992793;28;20210;-83
2021/07/07 00:27:42;;;;;;;0.70;0.70;;;;;;;;;;4993158;28;20204;-83
2021/07/07 00:30:12;;;;;;;0.80;0.80;;;;;;;;;;4994476;28;20207;-82
2021/07/07 00:32:40;;;;;;;1.05;0.90;;;;;;;;;;5011547;28;20246;-83
2021/07/07 00:35:09;;;;;;;0.73;0.73;;;;;;;;;;5008017;28;20200;-84
2021/07/07 00:37:37;;;;;;;1.15;0.90;;;;;;;;;;4992712;28;20207;-85
2021/07/07 00:40:06;;;;;;;0.80;0.80;;;;;;;;;;4992825;28;20195;-84
2021/07/07 00:42:34;;;;;;;0.90;0.70;;;;;;;;;;4992706;28;20231;-84
2021/07/07 00:45:01;;;;;;;0.70;0.70;;;;;;;;;;4992390;28;20188;-84
2021/07/07 00:47:29;;;;;;;0.65;0.65;;;;;;;;;;4991482;28;20200;-84
2021/07/07 00:49:58;;;;;;;1.08;0.80;;;;;;;;;;4991666;28;20686;-84
2021/07/07 00:52:25;;;;;;;3.00;0.60;;;;;;;;;;4991719;28;20321;-84
2021/07/07 00:54:53;;;;;;;0.95;0.65;;;;;;;;;;4991884;28;20203;-83
2021/07/07 00:57:24;;;;;;;1.20;0.80;;;;;;;;;;4991805;28;20199;-84
2021/07/07 00:59:56;;;;;;;1.05;0.80;;;;;;;;;;4992868;28;20188;-83
2021/07/07 01:02:24;;;;;;;0.82;0.70;;;;;;;;;;4993287;28;20293;-84
2021/07/07 01:04:51;;;;;;;0.80;0.80;;;;;;;;;;4994069;28;20184;-84
2021/07/07 01:07:20;;;;;;;1.00;0.65;;;;;;;;;;4994531;28;20184;-84
2021/07/07 01:09:49;;;;;;;0.77;0.77;;;;;;;;;;4994965;28;20180;-85
2021/07/07 01:12:16;;;;;;;0.60;0.60;;;;;;;;;;4991830;28;20241;-83
2021/07/07 01:14:43;;;;;;;0.70;0.70;;;;;;;;;;4991029;28;20218;-86
2021/07/07 01:17:11;;;;;;;0.50;0.50;;;;;;;;;;4990936;28;20206;-84
2021/07/07 01:19:38;;;;;;;1.00;0.80;;;;;;;;;;4991435;28;20199;-85
2021/07/07 01:22:07;;;;;;;1.35;1.27;;;;;;;;;;5004588;28;20236;-85
2021/07/07 01:24:35;;;;;;;0.73;0.73;;;;;;;;;;5093026;28;20208;-85
2021/07/07 01:27:02;;;;;;;1.00;0.80;;;;;;;;;;5093441;28;20192;-85
2021/07/07 01:29:29;;;;;;;0.65;0.65;;;;;;;;;;5094026;28;20181;-85
2021/07/07 01:31:57;;;;;;;0.93;0.88;;;;;;;;;;5093330;28;20228;-85
2021/07/07 01:34:24;;;;;;;0.80;0.80;;;;;;;;;;5093118;28;20188;-85
2021/07/07 01:36:52;;;;;;;0.77;0.77;;;;;;;;;;5093002;28;20188;-86
2021/07/07 01:39:21;;;;;;;0.70;0.70;;;;;;;;;;5093272;28;20183;-86
2021/07/07 01:41:49;;;;;;;1.13;0.65;;;;;;;;;;5092748;28;20220;-85
2021/07/07 01:44:16;;;;;;;1.45;0.60;;;;;;;;;;5092757;28;20219;-85
2021/07/07 01:46:44;;;;;;;0.73;0.73;;;;;;;;;;5092575;28;20211;-86
2021/07/07 01:49:11;;;;;;;0.65;0.65;;;;;;;;;;5092770;28;20208;-84
2021/07/07 01:51:39;;;;;;;0.63;0.63;;;;;;;;;;5093294;28;20639;-85
2021/07/07 01:54:06;;;;;;;0.57;0.50;;;;;;;;;;5092922;28;20207;-85
2021/07/07 01:56:35;;;;;;;0.80;0.80;;;;;;;;;;5093449;28;20207;-84
2021/07/07 01:59:03;;;;;;;0.68;0.68;;;;;;;;;;5093265;28;20200;-85
2021/07/07 02:01:31;;;;;;;0.88;0.88;;;;;;;;;;5092834;28;20219;-85
2021/07/07 02:03:59;;;;;;;0.90;0.90;;;;;;;;;;5096449;28;20580;-85
2021/07/07 02:06:27;;;;;;;0.90;0.90;;;;;;;;;;5097455;28;20185;-85
2021/07/07 02:08:55;;;;;;;2.03;0.88;;;;;;;;;;5096975;28;20184;-85
2021/07/07 02:11:22;;;;;;;0.70;0.70;;;;;;;;;;5096041;28;20224;-86
2021/07/07 02:13:51;;;;;;;0.60;0.60;;;;;;;;;;5095450;28;20191;-85
2021/07/07 02:16:18;;;;;;;0.60;0.60;;;;;;;;;;5096364;28;20185;-86
2021/07/07 02:18:46;;;;;;;0.73;0.73;;;;;;;;;;5096513;28;20184;-84
2021/07/07 02:21:13;;;;;;;0.50;0.47;;;;;;;;;;5096482;28;20220;-85
2021/07/07 02:23:41;;;;;;;1.85;0.50;;;;;;;;;;5096107;28;20236;-85
2021/07/07 02:26:08;;;;;;;0.63;0.60;;;;;;;;;;5097424;28;20200;-85
2021/07/07 02:28:36;;;;;;;0.50;0.50;;;;;;;;;;5101362;28;20207;-85
2021/07/07 02:31:04;;;;;;;1.05;1.05;;;;;;;;;;5113950;28;20227;-85
2021/07/07 02:33:32;;;;;;;0.60;0.60;;;;;;;;;;5117278;28;20196;-83
2021/07/07 02:36:00;;;;;;;0.90;0.90;;;;;;;;;;5117078;28;20210;-84
2021/07/07 02:38:29;;;;;;;0.70;0.70;;;;;;;;;;5116954;28;20288;-84
2021/07/07 02:40:57;;;;;;;0.80;0.80;;;;;;;;;;5116346;28;20702;-85
2021/07/07 02:43:24;;;;;;;1.55;0.88;;;;;;;;;;5116227;28;20729;-85
2021/07/07 02:45:52;;;;;;;2.13;0.90;;;;;;;;;;5116625;28;20184;-85
2021/07/07 02:48:21;;;;;;;0.80;0.80;;;;;;;;;;5116567;28;20612;-85
2021/07/07 02:50:49;;;;;;;0.65;0.65;;;;;;;;;;5116931;28;20180;-85
2021/07/07 02:53:20;;;;;;;0.80;0.80;;;;;;;;;;5116262;28;20718;-84
2021/07/07 02:55:48;;;;;;;0.50;0.50;;;;;;;;;;5116743;28;20534;-84
2021/07/07 02:58:15;;;;;;;0.85;0.85;;;;;;;;;;5117018;28;20551;-84
2021/07/07 03:00:45;;;;;;;1.00;1.00;;;;;;;;;;5116955;28;20187;-83
2021/07/07 03:03:15;;;;;;;0.82;0.80;;;;;;;;;;5116770;28;20223;-82
2021/07/07 03:05:46;;;;;;;1.55;0.95;;;;;;;;;;5116711;28;20652;-84
2021/07/07 03:08:14;;;;;;;0.80;0.80;;;;;;;;;;5117515;28;20211;-84
2021/07/07 03:10:44;;;;;;;0.90;0.90;;;;;;;;;;5117079;28;20184;-84
2021/07/07 03:13:12;;;;;;;1.85;0.82;;;;;;;;;;5117313;28;20190;-84
2021/07/07 03:15:40;;;;;;;0.65;0.65;;;;;;;;;;5115365;28;20200;-84
2021/07/07 03:18:09;;;;;;;0.50;0.50;;;;;;;;;;5117428;28;20184;-83
2021/07/07 03:20:38;;;;;;;1.17;0.68;;;;;;;;;;5098260;28;20193;-83
2021/07/07 03:23:10;;;;;;;0.93;0.88;;;;;;;;;;5040920;28;20236;-83
2021/07/07 03:25:38;;;;;;;0.60;0.60;;;;;;;;;;4993845;28;20784;-83
2021/07/07 03:28:06;;;;;;;0.80;0.80;;;;;;;;;;4994291;28;20188;-82
2021/07/07 03:30:34;;;;;;;1.05;0.70;;;;;;;;;;4993710;28;20195;-83
2021/07/07 03:33:02;;;;;;;0.57;0.57;;;;;;;;;;4993459;28;20199;-82
2021/07/07 03:35:30;;;;;;;2.22;1.15;;;;;;;;;;4993522;28;20187;-83
2021/07/07 03:37:58;;;;;;;0.75;0.75;;;;;;;;;;5009992;28;20192;-82
2021/07/07 03:40:29;;;;;;;0.40;0.40;;;;;;;;;;5012961;28;20207;-83
2021/07/07 03:42:57;;;;;;;0.57;0.57;;;;;;;;;;5013006;28;20223;-82
2021/07/07 03:45:24;;;;;;;1.08;1.08;;;;;;;;;;5012738;28;20624;-83
2021/07/07 03:47:52;;;;;;;0.80;0.80;;;;;;;;;;5012984;28;20581;-82
2021/07/07 03:50:20;;;;;;;0.63;0.63;;;;;;;;;;5012923;28;20195;-83
2021/07/07 03:52:49;;;;;;;0.73;0.73;;;;;;;;;;5012708;28;20211;-83
2021/07/07 03:55:20;;;;;;;0.85;0.85;;;;;;;;;;5013364;28;20563;-83
2021/07/07 03:57:49;;;;;;;0.70;0.70;;;;;;;;;;5013191;28;20183;-83
2021/07/07 04:00:22;;;;;;;1.40;0.70;;;;;;;;;;5012894;28;20215;-81
2021/07/07 04:02:50;;;;;;;1.15;0.88;;;;;;;;;;5013552;28;20218;-83
2021/07/07 04:05:17;;;;;;;0.98;0.80;;;;;;;;;;5012544;28;20210;-83
2021/07/07 04:07:45;;;;;;;1.20;1.00;;;;;;;;;;5012300;28;20191;-83
2021/07/07 04:10:14;;;;;;;0.70;0.70;;;;;;;;;;5012703;28;20198;-82
2021/07/07 04:12:43;;;;;;;0.90;0.90;;;;;;;;;;5012819;28;20269;-82
2021/07/07 04:15:15;;;;;;;3.08;0.68;;;;;;;;;;5012255;28;20190;-83
2021/07/07 04:17:44;;;;;;;0.95;0.85;;;;;;;;;;5012450;28;20532;-83
2021/07/07 04:20:15;;;;;;;1.20;0.95;;;;;;;;;;5012372;28;20247;-83
2021/07/07 04:22:43;;;;;;;1.35;0.75;;;;;;;;;;5050833;28;20878;-83
2021/07/07 04:25:13;;;;;;;1.02;1.00;;;;;;;;;;5115410;28;20219;-83
2021/07/07 04:27:41;;;;;;;0.80;0.80;;;;;;;;;;5109945;28;20593;-82
2021/07/07 04:30:14;;;;;;;1.13;1.00;;;;;;;;;;5094887;28;20664;-83
2021/07/07 04:32:42;;;;;;;1.00;0.90;;;;;;;;;;5094763;28;20216;-83
2021/07/07 04:35:11;;;;;;;0.70;0.70;;;;;;;;;;5094955;28;20272;-83
2021/07/07 04:37:39;;;;;;;1.20;0.80;;;;;;;;;;5094863;28;20185;-83
2021/07/07 04:40:09;;;;;;;0.60;0.60;;;;;;;;;;5106907;28;20198;-83
2021/07/07 04:42:37;;;;;;;1.13;0.80;;;;;;;;;;5114871;28;20219;-83
2021/07/07 04:45:06;;;;;;;0.68;0.68;;;;;;;;;;5119824;28;20204;-82
2021/07/07 04:47:36;;;;;;;0.85;0.85;;;;;;;;;;5115436;28;20180;-83
2021/07/07 04:50:04;;;;;;;0.68;0.65;;;;;;;;;;5115101;28;20245;-83
2021/07/07 04:52:32;;;;;;;1.25;0.90;;;;;;;;;;5114561;28;20705;-83
2021/07/07 04:54:59;;;;;;;0.90;0.90;;;;;;;;;;5114782;28;20552;-83
2021/07/07 04:57:27;;;;;;;1.40;1.10;;;;;;;;;;5114229;28;20184;-83
2021/07/07 04:59:54;;;;;;;0.60;0.60;;;;;;;;;;5110386;28;20185;-83
2021/07/07 05:02:21;;;;;;;0.70;0.70;;;;;;;;;;5093476;28;20220;-82
2021/07/07 05:04:52;;;;;;;0.73;0.70;;;;;;;;;;5110000;28;20613;-83
2021/07/07 05:07:19;;;;;;;1.05;0.95;;;;;;;;;;5114466;28;20219;-83
2021/07/07 05:09:47;;;;;;;1.05;0.88;;;;;;;;;;5112851;28;20200;-82
2021/07/07 05:12:14;;;;;;;1.23;1.02;;;;;;;;;;5113474;28;20224;-82
2021/07/07 05:14:42;;;;;;;1.20;1.10;;;;;;;;;;5113442;28;20188;-82
2021/07/07 05:17:09;;;;;;;0.75;0.75;;;;;;;;;;5113718;28;20190;-82
2021/07/07 05:19:37;;;;;;;0.80;0.80;;;;;;;;;;5113819;28;20190;-82
2021/07/07 05:22:06;;;;;;;0.80;0.77;;;;;;;;;;5113555;28;20583;-83
2021/07/07 05:24:33;;;;;;;0.77;0.77;;;;;;;;;;5112852;28;20220;-82
2021/07/07 05:27:01;;;;;;;0.70;0.55;;;;;;;;;;5113380;28;20191;-82
2021/07/07 05:29:28;;;;;;;0.90;0.90;;;;;;;;;;5113373;28;20222;-83
2021/07/07 05:31:58;;;;;;;1.10;1.00;;;;;;;;;;5113213;28;20220;-83
2021/07/07 05:34:26;;;;;;;0.90;0.90;;;;;;;;;;5113542;28;20188;-83
2021/07/07 05:36:53;;;;;;;0.98;0.98;;;;;;;;;;5112906;28;20587;-83
2021/07/07 05:39:22;;;;;;;0.95;0.90;;;;;;;;;;5114543;28;20186;-83
2021/07/07 05:41:49;;;;;;;1.27;1.10;;;;;;;;;;5096733;28;20216;-84
2021/07/07 05:44:18;;;;;;;1.20;0.95;;;;;;;;;;5097161;28;20187;-83
2021/07/07 05:46:45;;;;;;;1.02;0.90;;;;;;;;;;5096006;28;20196;-83
2021/07/07 05:49:13;;;;;;;1.23;0.77;;;;;;;;;;5097212;28;20561;-83
2021/07/07 05:51:40;;;;;;;0.70;0.70;;;;;;;;;;5097217;28;20224;-83
2021/07/07 05:54:08;;;;;;;0.70;0.70;;;;;;;;;;5096655;28;20187;-82
2021/07/07 05:56:37;;;;;;;0.73;0.73;;;;;;;;;;5096656;28;20185;-82
2021/07/07 05:59:04;;;;;;;0.90;0.90;;;;;;;;;;5095894;28;20201;-83
2021/07/07 06:01:31;;;;;;;0.75;0.75;;;;;;;;;;5096533;28;20216;-83
2021/07/07 06:03:59;;;;;;;0.90;0.85;;;;;;;;;;5101192;28;20195;-82
2021/07/07 06:06:27;;;;;;;0.70;0.70;;;;;;;;;;5116970;28;20204;-82
2021/07/07 06:08:55;;;;;;;1.50;0.93;;;;;;;;;;5116548;28;20207;-83
2021/07/07 06:11:22;;;;;;;0.70;0.70;;;;;;;;;;5117636;28;20224;-82
2021/07/07 06:13:51;;;;;;;2.95;1.35;;;;;;;;;;5117126;28;20557;-82
2021/07/07 06:16:18;;;;;;;0.95;0.80;;;;;;;;;;5116753;28;20187;-83
2021/07/07 06:18:46;;;;;;;1.48;1.20;;;;;;;;;;5116567;28;20204;-83
2021/07/07 06:21:13;;;;;;;1.23;1.05;;;;;;;;;;5110362;28;20216;-83
2021/07/07 06:23:41;;;;;;;2.95;1.10;;;;;;;;;;5016216;28;20733;-82
2021/07/07 06:26:08;;;;;;;4.82;1.77;;;;;;;;;;4995624;28;20697;-83
2021/07/07 06:28:36;;;;;;;1.20;1.10;;;;;;;;;;4995777;28;20200;-83
2021/07/07 06:31:04;;;;;;;2.88;1.00;;;;;;;;;;4996342;28;20212;-84
2021/07/07 06:33:32;;;;;;;0.80;0.80;;;;;;;;;;4996762;28;20286;-83
2021/07/07 06:35:59;;;;;;;0.90;0.90;;;;;;;;;;4995632;28;20196;-83
2021/07/07 06:38:27;;;;;;;0.90;0.90;;;;;;;;;;4995910;28;20210;-83
2021/07/07 06:40:54;;;;;;;1.50;1.40;;;;;;;;;;4995801;28;20599;-83
2021/07/07 06:43:22;;;;;;;1.02;1.02;;;;;;;;;;4995396;28;20188;-83
2021/07/07 06:45:49;;;;;;;0.82;0.82;;;;;;;;;;5006576;28;20685;-83
2021/07/07 06:48:18;;;;;;;0.80;0.80;;;;;;;;;;5014227;28;20210;-82
2021/07/07 06:50:45;;;;;;;1.02;1.00;;;;;;;;;;5013845;28;20191;-82
2021/07/07 06:53:15;;;;;;;1.75;0.88;;;;;;;;;;5014148;28;20207;-82
2021/07/07 06:55:42;;;;;;;1.08;1.08;;;;;;;;;;5013709;28;20196;-83
2021/07/07 06:58:12;;;;;;;3.40;1.17;;;;;;;;;;5013851;28;20556;-82
2021/07/07 07:00:40;;;;;;;2.08;0.95;;;;;;;;;;5014654;28;20198;-82
2021/07/07 07:03:07;;;;;;;1.58;1.48;;;;;;;;;;5012266;28;20199;-82
2021/07/07 07:05:36;;;;;;;1.95;1.27;;;;;;;;;;5033314;28;20215;-82
2021/07/07 07:08:04;;;;;;;1.23;0.80;;;;;;;;;;5032676;28;20186;-82
2021/07/07 07:10:32;;;;;;;1.23;1.20;;;;;;;;;;4996589;28;20188;-83
2021/07/07 07:13:00;;;;;;;1.83;1.00;;;;;;;;;;4998204;28;20184;-84
2021/07/07 07:15:27;;;;;;;2.13;1.30;;;;;;;;;;5012431;28;20654;-83
2021/07/07 07:21:02;;;;;;;1.80;1.58;;;;;;;;;;5033624;28;20223;-83
2021/07/07 07:23:29;;;;;;;1.30;1.20;;;;;;;;;;5084016;28;20235;-84
2021/07/07 07:25:57;;;;;;;1.30;1.20;;;;;;;;;;5115051;28;20227;-82
2021/07/07 07:28:24;;;;;;;1.85;1.50;;;;;;;;;;5115033;28;20204;-83
2021/07/07 07:30:52;;;;;;;1.88;1.77;;;;;;;;;;5114784;28;20206;-83
2021/07/07 07:33:20;;;;;;;1.23;1.17;;;;;;;;;;5115126;28;20200;-82
2021/07/07 07:35:47;;;;;;;1.65;1.33;;;;;;;;;;5114625;28;20195;-82
2021/07/07 07:38:26;;;;;;;2.05;1.40;;;;;;;;;;5114965;28;20196;-82
2021/07/07 07:40:53;;;;;;;1.20;1.10;;;;;;;;;;5115124;28;20247;-82
2021/07/07 07:43:21;;;;;;;2.10;1.30;;;;;;;;;;5114283;28;20196;-83
2021/07/07 07:45:51;;;;;;;2.75;1.60;;;;;;;;;;5114673;28;20265;-83
2021/07/07 07:48:18;;;;;;;3.45;2.83;;;;;;;;;;5114961;28;20206;-83
2021/07/07 07:50:46;;;;;;;1.50;1.35;;;;;;;;;;5114970;28;20204;-82
2021/07/07 07:53:15;;;;;;;1.73;1.50;;;;;;;;;;5115672;28;20206;-82
2021/07/07 07:55:42;;;;;;;2.97;1.52;;;;;;;;;;5115708;28;20180;-82
2021/07/07 07:58:10;;;;;;;4.88;1.83;;;;;;;;;;5115222;28;20195;-82
2021/07/07 08:00:37;;;;;;;1.15;1.08;;;;;;;;;;5115043;28;20172;-83
2021/07/07 08:03:05;;;;;;;1.27;1.05;;;;;;;;;;5115380;28;20200;-83
2021/07/07 08:05:32;;;;;;;1.55;1.45;;;;;;;;;;5114439;28;20200;-83
2021/07/07 08:08:02;;;;;;;1.73;1.30;;;;;;;;;;5115603;28;20208;-83
2021/07/07 08:10:31;;;;;;;2.65;1.40;;;;;;;;;;5115098;28;20187;-83
2021/07/07 08:12:58;;;;;;;1.67;1.50;;;;;;;;;;5114835;28;20184;-84
2021/07/07 08:15:28;;;;;;;2.00;1.80;;;;;;;;;;5115832;28;20834;-82
2021/07/07 08:17:56;;;;;;;3.45;1.77;;;;;;;;;;5115088;28;20590;-83
2021/07/07 08:20:25;;;;;;;2.40;1.60;;;;;;;;;;5114934;28;20204;-82
2021/07/07 08:22:53;;;;;;;1.52;1.42;;;;;;;;;;5114321;28;20227;-82
2021/07/07 08:25:21;;;;;;;1.55;1.45;;;;;;;;;;5094447;28;20188;-82
2021/07/07 08:27:50;;;;;;;1.50;1.40;;;;;;;;;;5095495;28;20227;-82
2021/07/07 08:30:19;;;;;;;1.25;0.98;;;;;;;;;;5094774;28;20655;-82
2021/07/07 08:32:47;;;;;;;1.48;1.35;;;;;;;;;;5095198;28;20232;-83
2021/07/07 08:35:15;;;;;;;1.40;1.30;;;;;;;;;;5094497;28;20732;-82
2021/07/07 08:37:44;;;;;;;4.05;1.30;;;;;;;;;;5094262;28;20196;-83
2021/07/07 08:40:14;;;;;;;1.40;1.30;;;;;;;;;;5094211;28;20192;-83
2021/07/07 08:42:43;;;;;;;1.42;1.17;;;;;;;;;;5095062;28;20220;-82
2021/07/07 08:45:14;;;;;;;1.48;1.48;;;;;;;;;;5094050;28;20654;-83
2021/07/07 08:47:44;;;;;;;2.55;1.55;;;;;;;;;;5094567;28;20205;-83
2021/07/07 08:50:14;;;;;;;1.38;1.27;;;;;;;;;;5095562;28;20231;-83
2021/07/07 08:52:42;;;;;;;1.17;1.08;;;;;;;;;;5094395;28;20216;-83
2021/07/07 08:55:12;;;;;;;2.40;1.20;;;;;;;;;;5094494;28;20200;-83
2021/07/07 08:57:44;;;;;;;1.65;1.55;;;;;;;;;;5094753;28;20286;-82
2021/07/07 09:00:22;;;;;;;1.30;1.20;;;;;;;;;;5095022;28;20187;-83
2021/07/07 09:03:00;;;;;;;1.48;1.38;;;;;;;;;;5095018;28;20224;-83
2021/07/07 09:05:29;;;;;;;1.20;1.20;;;;;;;;;;5094366;28;20180;-82
2021/07/07 09:08:05;;;;;;;2.25;1.38;;;;;;;;;;5094006;28;20224;-83
2021/07/07 09:10:34;;;;;;;1.17;1.00;;;;;;;;;;5094295;28;20203;-83
2021/07/07 09:13:11;;;;;;;1.70;1.42;;;;;;;;;;5094120;28;20222;-83
2021/07/07 09:15:40;;;;;;;1.33;1.23;;;;;;;;;;5094936;28;20190;-83
2021/07/07 09:18:08;;;;;;;1.90;1.05;;;;;;;;;;5095717;28;20184;-82
2021/07/07 09:20:39;;;;;;;1.98;1.65;;;;;;;;;;5093840;28;20212;-83
2021/07/07 09:23:22;;;;;;;1.77;1.20;;;;;;;;;;5095188;28;20232;-83
2021/07/07 09:25:56;;;;;;;2.72;1.42;;;;;;;;;;5095170;28;20177;-83
2021/07/07 09:28:27;;;;;;;3.60;1.65;;;;;;;;;;5094826;28;20208;-83
2021/07/07 09:31:02;;;;;;;1.05;1.05;;;;;;;;;;5094727;28;20224;-82
2021/07/07 09:33:35;;;;;;;1.85;1.73;;;;;;;;;;5096349;28;20211;-83
2021/07/07 09:36:20;;;;;;;5.07;1.40;;;;;;;;;;5095055;28;20184;-84
2021/07/07 09:38:48;;;;;;;1.98;1.58;;;;;;;;;;5100366;28;20191;-84
2021/07/07 09:41:16;;;;;;;1.38;1.20;;;;;;;;;;5095883;28;20599;-84
2021/07/07 09:43:48;;;;;;;1.30;1.20;;;;;;;;;;5094836;28;20211;-84
2021/07/07 09:46:18;;;;;;;1.63;1.35;;;;;;;;;;5094464;28;20196;-83
2021/07/07 09:48:48;;;;;;;1.30;1.20;;;;;;;;;;5097172;28;20196;-83
2021/07/07 09:51:16;;;;;;;2.15;1.40;;;;;;;;;;5096982;28;20219;-84
2021/07/07 09:53:43;;;;;;;2.58;1.60;;;;;;;;;;5097451;28;20669;-83
2021/07/07 09:56:10;;;;;;;1.40;1.10;;;;;;;;;;5094502;28;20815;-84
2021/07/07 09:58:38;;;;;;;1.50;1.40;;;;;;;;;;5099959;28;20218;-83
2021/07/07 10:01:05;;;;;;;0.95;0.95;;;;;;;;;;5109754;28;20231;-83
2021/07/07 10:03:34;;;;;;;1.60;1.13;;;;;;;;;;5113378;28;20200;-82
2021/07/07 10:06:03;;;;;;;1.13;1.00;;;;;;;;;;5113891;28;20206;-83
2021/07/07 10:08:31;;;;;;;1.30;1.20;;;;;;;;;;5114670;28;20219;-83
2021/07/07 10:10:59;;;;;;;1.10;1.00;;;;;;;;;;5113568;28;20306;-83
2021/07/07 10:13:28;;;;;;;0.90;0.90;;;;;;;;;;5113562;28;20211;-83
2021/07/07 10:15:56;;;;;;;2.17;1.10;;;;;;;;;;5112995;28;20214;-83
2021/07/07 10:18:23;;;;;;;2.38;1.10;;;;;;;;;;5113081;28;20195;-83
2021/07/07 10:20:53;;;;;;;1.10;0.90;;;;;;;;;;5112616;28;20584;-83
2021/07/07 10:23:21;;;;;;;1.35;1.13;;;;;;;;;;5113295;28;20234;-83
2021/07/07 10:25:48;;;;;;;1.25;0.90;;;;;;;;;;5116381;28;20250;-83
2021/07/07 10:28:17;;;;;;;0.90;0.90;;;;;;;;;;5116729;28;20223;-83
2021/07/07 10:30:54;;;;;;;4.20;1.48;;;;;;;;;;5117030;28;20203;-83
2021/07/07 10:33:25;;;;;;;1.27;1.17;;;;;;;;;;5116840;28;20282;-83
2021/07/07 10:36:15;;;;;;;1.20;0.90;;;;;;;;;;5117128;28;20191;-83
2021/07/07 10:38:55;;;;;;;0.60;0.60;;;;;;;;;;5116267;28;20200;-83
2021/07/07 10:41:55;;;;;;;1.00;1.00;;;;;;;;;;5116152;28;20249;-83
2021/07/07 10:44:52;;;;;;;1.00;0.95;;;;;;;;;;5116789;28;20199;-83
2021/07/07 10:47:34;;;;;;;1.35;1.25;;;;;;;;;;5109680;28;20208;-84
2021/07/07 10:50:03;;;;;;;1.20;1.10;;;;;;;;;;5117218;28;20201;-84
2021/07/07 10:52:43;;;;;;;1.15;1.00;;;;;;;;;;5116653;28;20231;-83
2021/07/07 10:55:12;;;;;;;1.05;1.02;;;;;;;;;;5116056;28;20574;-84
2021/07/07 10:57:40;;;;;;;1.27;1.15;;;;;;;;;;5115768;28;20292;-84
2021/07/07 11:00:29;;;;;;;1.00;1.00;;;;;;;;;;5115511;28;20199;-83
2021/07/07 11:03:31;;;;;;;3.40;1.27;;;;;;;;;;5115664;28;20219;-83
2021/07/07 11:05:59;;;;;;;1.35;1.25;;;;;;;;;;5116233;28;20203;-84
2021/07/07 11:08:31;;;;;;;1.42;1.15;;;;;;;;;;5116224;28;20314;-83
2021/07/07 11:11:00;;;;;;;4.13;1.50;;;;;;;;;;5116867;28;20223;-83
2021/07/07 11:13:31;;;;;;;2.38;0.95;;;;;;;;;;5116081;28;20249;-84
2021/07/07 11:15:58;;;;;;;1.52;1.40;;;;;;;;;;5114744;28;20207;-84
2021/07/07 11:18:26;;;;;;;1.27;1.17;;;;;;;;;;5116593;28;20204;-83
2021/07/07 11:21:04;;;;;;;1.33;1.13;;;;;;;;;;5116319;28;20695;-86
2021/07/07 11:23:33;;;;;;;0.80;0.80;;;;;;;;;;5113388;27;20235;-85
2021/07/07 11:26:00;;;;;;;1.05;1.05;;;;;;;;;;5114618;28;20200;-85
2021/07/07 11:28:28;;;;;;;1.58;1.00;;;;;;;;;;5114829;28;20682;-85
2021/07/07 11:30:56;;;;;;;1.48;1.25;;;;;;;;;;5115425;28;20313;-84
2021/07/07 11:33:23;;;;;;;0.60;0.60;;;;;;;;;;5114548;28;20204;-85
2021/07/07 11:35:51;;;;;;;1.10;1.10;;;;;;;;;;5113990;28;20213;-85
2021/07/07 11:38:23;;;;;;;1.25;1.15;;;;;;;;;;5116042;28;20202;-85
2021/07/07 11:40:55;;;;;;;1.40;1.27;;;;;;;;;;5115606;28;20204;-86
2021/07/07 11:43:26;;;;;;;0.80;0.80;;;;;;;;;;5115566;28;20192;-85
2021/07/07 11:45:58;;;;;;;1.42;1.30;;;;;;;;;;5115728;28;20243;-85
2021/07/07 11:48:29;;;;;;;2.80;1.17;;;;;;;;;;5116011;28;20697;-85
2021/07/07 11:51:00;;;;;;;1.08;0.98;;;;;;;;;;5116069;28;20223;-85
2021/07/07 11:53:36;;;;;;;0.88;0.88;;;;;;;;;;5115187;28;20725;-84
2021/07/07 11:56:07;;;;;;;0.90;0.85;;;;;;;;;;5115852;28;20196;-85
2021/07/07 11:58:43;;;;;;;2.22;1.02;;;;;;;;;;5115332;28;20621;-85
2021/07/07 12:01:17;;;;;;;4.30;1.60;;;;;;;;;;5115529;28;20280;-86
2021/07/07 12:03:54;;;;;;;1.38;1.05;;;;;;;;;;5114788;28;20231;-85
2021/07/07 12:06:31;;;;;;;1.02;1.02;;;;;;;;;;5114858;28;20184;-84
2021/07/07 12:08:59;;;;;;;2.20;2.00;;;;;;;;;;5115103;28;20226;-85
2021/07/07 12:11:28;;;;;;;1.35;1.10;;;;;;;;;;5114368;28;20310;-85
2021/07/07 12:13:57;;;;;;;1.42;1.33;;;;;;;;;;5114022;28;20200;-85
2021/07/07 12:16:30;;;;;;;0.80;0.80;;;;;;;;;;5114261;28;20200;-85
2021/07/07 12:18:59;;;;;;;1.10;0.85;;;;;;;;;;5115052;28;20294;-85
2021/07/07 12:21:46;;;;;;;0.90;0.90;;;;;;;;;;5114435;28;20589;-85
2021/07/07 12:24:18;;;;;;;0.88;0.88;;;;;;;;;;5114611;28;20260;-84
2021/07/07 12:26:50;;;;;;;1.13;0.63;;;;;;;;;;5113903;28;20219;-84
2021/07/07 12:29:21;;;;;;;3.15;1.35;;;;;;;;;;5113927;28;20222;-84
2021/07/07 12:31:51;;;;;;;1.10;0.80;;;;;;;;;;5113907;28;20211;-85
2021/07/07 12:34:28;;;;;;;1.83;1.13;;;;;;;;;;5114388;28;20199;-84
2021/07/07 12:36:58;;;;;;;1.13;0.88;;;;;;;;;;5113732;28;20211;-85
2021/07/07 12:39:28;;;;;;;1.20;1.10;;;;;;;;;;5113548;28;20245;-85
2021/07/07 12:42:04;;;;;;;1.45;1.08;;;;;;;;;;5113514;28;20220;-86
2021/07/07 12:44:34;;;;;;;1.38;0.73;;;;;;;;;;5113102;28;20203;-86
2021/07/07 12:47:12;;;;;;;0.70;0.70;;;;;;;;;;5113609;28;20195;-85
2021/07/07 12:49:48;;;;;;;0.95;0.95;;;;;;;;;;5113647;28;20695;-85
2021/07/07 12:52:27;;;;;;;0.80;0.80;;;;;;;;;;5113851;28;20717;-85
2021/07/07 12:55:08;;;;;;;1.05;0.80;;;;;;;;;;5093462;28;20208;-85
2021/07/07 12:57:45;;;;;;;0.70;0.70;;;;;;;;;;5093204;28;20226;-86
2021/07/07 13:00:14;;;;;;;0.93;0.90;;;;;;;;;;5094310;28;20199;-86
2021/07/07 13:02:56;;;;;;;0.68;0.68;;;;;;;;;;5096067;28;20215;-86
2021/07/07 13:05:33;;;;;;;1.15;1.10;;;;;;;;;;5112759;28;20193;-85
2021/07/07 13:08:02;;;;;;;0.95;0.82;;;;;;;;;;5112952;28;20618;-85
2021/07/07 13:10:34;;;;;;;0.73;0.73;;;;;;;;;;5112794;28;20223;-85
2021/07/07 13:13:26;;;;;;;1.15;1.05;;;;;;;;;;5113178;28;20234;-85
2021/07/07 13:16:12;;;;;;;0.73;0.73;;;;;;;;;;5112709;28;20180;-85
2021/07/07 13:19:11;;;;;;;1.45;0.98;;;;;;;;;;5112769;28;20199;-86
2021/07/07 13:21:46;;;;;;;0.85;0.85;;;;;;;;;;5112927;28;20219;-85
2021/07/07 13:24:32;;;;;;;1.13;1.02;;;;;;;;;;4990252;28;20200;-86
2021/07/07 13:27:06;;;;;;;0.80;0.80;;;;;;;;;;4990650;28;20202;-85
2021/07/07 13:29:37;;;;;;;0.80;0.80;;;;;;;;;;4990445;28;20227;-85
2021/07/07 13:32:12;;;;;;;0.90;0.90;;;;;;;;;;4990146;28;20233;-85
2021/07/07 13:34:41;;;;;;;0.68;0.68;;;;;;;;;;4989913;28;20215;-84
2021/07/07 13:37:16;;;;;;;0.82;0.82;;;;;;;;;;4990773;28;20196;-84
2021/07/07 13:39:45;;;;;;;0.80;0.80;;;;;;;;;;4991207;28;20203;-84
2021/07/07 13:42:13;;;;;;;0.88;0.88;;;;;;;;;;4990916;28;20714;-85
2021/07/07 13:44:43;;;;;;;1.23;0.80;;;;;;;;;;4990219;28;20247;-85
2021/07/07 13:47:10;;;;;;;0.93;0.85;;;;;;;;;;4990095;28;20192;-85
2021/07/07 13:49:38;;;;;;;0.90;0.90;;;;;;;;;;4990283;28;20228;-84
2021/07/07 13:52:07;;;;;;;1.00;0.95;;;;;;;;;;4990602;28;20215;-84
2021/07/07 13:54:34;;;;;;;1.38;1.13;;;;;;;;;;4990013;28;20220;-84
2021/07/07 13:57:02;;;;;;;0.68;0.68;;;;;;;;;;4991095;28;20200;-84
2021/07/07 13:59:30;;;;;;;0.98;0.98;;;;;;;;;;4992823;28;20200;-84
2021/07/07 14:01:59;;;;;;;0.80;0.80;;;;;;;;;;4993568;28;20219;-84
2021/07/07 14:04:26;;;;;;;1.23;0.80;;;;;;;;;;4993796;28;20203;-84
2021/07/07 14:06:55;;;;;;;0.70;0.70;;;;;;;;;;4993885;28;20203;-84
2021/07/07 14:09:23;;;;;;;0.82;0.77;;;;;;;;;;4993508;28;20246;-85
2021/07/07 14:11:50;;;;;;;0.98;0.98;;;;;;;;;;4993494;28;20267;-85
2021/07/07 14:14:18;;;;;;;1.13;1.05;;;;;;;;;;4992787;28;20204;-84
2021/07/07 14:16:46;;;;;;;0.75;0.70;;;;;;;;;;4993697;28;20573;-84
2021/07/07 14:19:15;;;;;;;1.08;0.80;;;;;;;;;;4993293;28;20214;-84
2021/07/07 14:21:42;;;;;;;0.93;0.93;;;;;;;;;;4992843;28;20630;-84
2021/07/07 14:24:10;;;;;;;0.82;0.82;;;;;;;;;;5112323;28;20227;-84
2021/07/07 14:26:37;;;;;;;0.75;0.75;;;;;;;;;;5115705;28;20206;-84
2021/07/07 14:29:05;;;;;;;0.88;0.88;;;;;;;;;;5116294;28;20208;-84
2021/07/07 14:31:32;;;;;;;1.40;0.82;;;;;;;;;;5115657;28;20223;-84
2021/07/07 14:34:02;;;;;;;0.68;0.68;;;;;;;;;;5115814;28;20207;-84
2021/07/07 14:36:31;;;;;;;1.55;0.70;;;;;;;;;;5116638;28;20200;-85
2021/07/07 14:38:59;;;;;;;1.05;0.80;;;;;;;;;;5118483;28;20203;-85
2021/07/07 14:41:31;;;;;;;0.88;0.82;;;;;;;;;;5117033;28;20277;-85
2021/07/07 14:43:59;;;;;;;0.82;0.82;;;;;;;;;;5116281;28;20215;-84
2021/07/07 14:46:27;;;;;;;0.68;0.68;;;;;;;;;;5115830;28;20226;-84
2021/07/07 14:48:55;;;;;;;0.85;0.80;;;;;;;;;;5116049;28;20699;-84
2021/07/07 14:51:22;;;;;;;1.23;0.82;;;;;;;;;;5115467;28;20226;-84
2021/07/07 14:53:51;;;;;;;1.65;0.80;;;;;;;;;;5115154;28;20199;-85
2021/07/07 14:56:20;;;;;;;0.70;0.70;;;;;;;;;;5115475;28;20202;-84
2021/07/07 14:58:47;;;;;;;0.75;0.75;;;;;;;;;;5115740;28;20222;-84
2021/07/07 15:01:15;;;;;;;0.75;0.75;;;;;;;;;;5114898;28;20215;-85